KHOP/HOP METAR and TAF weather

Enter ICAO airport designator
Station Type Date Time Source
KHOP METAR 2021/09/16 21:56 UTC NOAA

KHOP 162156Z AUTO 09008KT 10SM FEW070 28/19 A2998 RMK AO2 SLP149 T02830189


Station Type Date Time Source
KHOP Decoded METAR 2021/09/16 21:56 UTC NOAA

Fort Campbell U. S. Army Airfield, KY, United States (KHOP) 36-40N 087-30W 174M
Sep 16, 2021 - 05:56 PM EDT / 2021.09.16 2156 UTC
Wind: from the E (090 degrees) at 9 MPH (8 KT):0
Visibility: 10 mile(s):0
Sky conditions: mostly clear
Temperature: 82.9 F (28.3 C)
Dew Point: 66.0 F (18.9 C)
Relative Humidity: 56%
Pressure (altimeter): 29.98 in. Hg (1015 hPa)
ob: KHOP 162156Z AUTO 09008KT 10SM FEW070 28/19 A2998 RMK AO2 SLP149 T02830189
cycle: 22

Station Type Date Time Source
KHOP TAF 2021/09/16 16:05 UTC NOAA

TAF KHOP 161600Z 1616/1722 08006KT 9999 SCT015 BKN030 QNH3005INS
BECMG 1618/1619 10006KT 9999 SCT030 BKN050 QNH2999INS
BECMG 1711/1712 VRB06KT 8000 BR FEW015 BKN030 QNH3008INS
BECMG 1717/1718 VRB06KT 8000 -SHRA SCT020 OVC030 QNH3011INS
BECMG 1721/1722 VRB06KT 9999 NSW BKN030 OVC045 QNH3004INS TX27/1621Z TN21/1709Z

Example: see airport list